sensor_id;sensor_type;location;lat;lon;timestamp;pressure;altitude;pressure_sealevel;temperature
25514;BMP180;48128;54.242;10.280;2024-03-25T00:01:46;99456.00;;;6.00
25514;BMP180;48128;54.242;10.280;2024-03-25T00:04:12;99470.00;;;6.00
25514;BMP180;48128;54.242;10.280;2024-03-25T00:06:38;99463.00;;;6.00
25514;BMP180;48128;54.242;10.280;2024-03-25T00:09:05;99468.00;;;6.00
25514;BMP180;48128;54.242;10.280;2024-03-25T00:11:33;99464.00;;;6.00
25514;BMP180;48128;54.242;10.280;2024-03-25T00:13:59;99469.00;;;6.00
25514;BMP180;48128;54.242;10.280;2024-03-25T00:16:25;99483.00;;;6.00
25514;BMP180;48128;54.242;10.280;2024-03-25T00:18:51;99493.00;;;6.00
25514;BMP180;48128;54.242;10.280;2024-03-25T00:21:17;99491.00;;;6.00
25514;BMP180;48128;54.242;10.280;2024-03-25T00:23:43;99482.00;;;6.00
25514;BMP180;48128;54.242;10.280;2024-03-25T00:26:09;99498.00;;;6.00
25514;BMP180;48128;54.242;10.280;2024-03-25T00:28:35;99496.00;;;6.00
25514;BMP180;48128;54.242;10.280;2024-03-25T00:31:01;99503.00;;;6.00
25514;BMP180;48128;54.242;10.280;2024-03-25T00:33:27;99504.00;;;6.00
25514;BMP180;48128;54.242;10.280;2024-03-25T00:35:53;99514.00;;;6.00
25514;BMP180;48128;54.242;10.280;2024-03-25T00:38:19;99516.00;;;6.00
25514;BMP180;48128;54.242;10.280;2024-03-25T00:40:45;99512.00;;;6.00
25514;BMP180;48128;54.242;10.280;2024-03-25T00:43:11;99524.00;;;6.00
25514;BMP180;48128;54.242;10.280;2024-03-25T00:45:37;99533.00;;;6.00
25514;BMP180;48128;54.242;10.280;2024-03-25T00:48:04;99514.00;;;6.00
25514;BMP180;48128;54.242;10.280;2024-03-25T00:50:30;99524.00;;;6.00
25514;BMP180;48128;54.242;10.280;2024-03-25T00:52:56;99520.00;;;5.90
25514;BMP180;48128;54.242;10.280;2024-03-25T00:55:22;99523.00;;;5.90
25514;BMP180;48128;54.242;10.280;2024-03-25T00:57:48;99531.00;;;5.90
25514;BMP180;48128;54.242;10.280;2024-03-25T01:00:14;99526.00;;;5.90
25514;BMP180;48128;54.242;10.280;2024-03-25T01:02:42;99546.00;;;5.90
25514;BMP180;48128;54.242;10.280;2024-03-25T01:05:08;99541.00;;;5.90
25514;BMP180;48128;54.242;10.280;2024-03-25T01:07:35;99530.00;;;5.90
25514;BMP180;48128;54.242;10.280;2024-03-25T01:10:01;99537.00;;;5.90
25514;BMP180;48128;54.242;10.280;2024-03-25T01:12:27;99545.00;;;5.90
25514;BMP180;48128;54.242;10.280;2024-03-25T01:14:53;99552.00;;;5.90
25514;BMP180;48128;54.242;10.280;2024-03-25T01:17:19;99553.00;;;5.90
25514;BMP180;48128;54.242;10.280;2024-03-25T01:19:45;99553.00;;;5.90
25514;BMP180;48128;54.242;10.280;2024-03-25T01:22:11;99568.00;;;5.90
25514;BMP180;48128;54.242;10.280;2024-03-25T01:24:37;99573.00;;;5.90
25514;BMP180;48128;54.242;10.280;2024-03-25T01:27:03;99574.00;;;5.90
25514;BMP180;48128;54.242;10.280;2024-03-25T01:29:29;99578.00;;;5.90
25514;BMP180;48128;54.242;10.280;2024-03-25T01:31:55;99573.00;;;5.90
25514;BMP180;48128;54.242;10.280;2024-03-25T01:34:23;99579.00;;;5.90
25514;BMP180;48128;54.242;10.280;2024-03-25T01:36:49;99572.00;;;5.90
25514;BMP180;48128;54.242;10.280;2024-03-25T01:39:15;99592.00;;;5.90
25514;BMP180;48128;54.242;10.280;2024-03-25T01:41:41;99588.00;;;5.90
25514;BMP180;48128;54.242;10.280;2024-03-25T01:44:07;99589.00;;;5.90
25514;BMP180;48128;54.242;10.280;2024-03-25T01:46:33;99585.00;;;5.90
25514;BMP180;48128;54.242;10.280;2024-03-25T01:48:58;99587.00;;;5.80
25514;BMP180;48128;54.242;10.280;2024-03-25T01:51:24;99597.00;;;5.80
25514;BMP180;48128;54.242;10.280;2024-03-25T01:53:52;99587.00;;;5.80
25514;BMP180;48128;54.242;10.280;2024-03-25T01:56:18;99607.00;;;5.80
25514;BMP180;48128;54.242;10.280;2024-03-25T01:58:45;99616.00;;;5.80
25514;BMP180;48128;54.242;10.280;2024-03-25T02:01:12;99622.00;;;5.80
25514;BMP180;48128;54.242;10.280;2024-03-25T02:03:41;99624.00;;;5.70
25514;BMP180;48128;54.242;10.280;2024-03-25T02:06:14;99622.00;;;5.70
25514;BMP180;48128;54.242;10.280;2024-03-25T02:08:41;99620.00;;;5.70
25514;BMP180;48128;54.242;10.280;2024-03-25T02:11:07;99621.00;;;5.70
25514;BMP180;48128;54.242;10.280;2024-03-25T02:13:35;99625.00;;;5.70
25514;BMP180;48128;54.242;10.280;2024-03-25T02:16:02;99632.00;;;5.80
25514;BMP180;48128;54.242;10.280;2024-03-25T02:18:28;99625.00;;;5.80
25514;BMP180;48128;54.242;10.280;2024-03-25T02:20:54;99634.00;;;5.80
25514;BMP180;48128;54.242;10.280;2024-03-25T02:23:20;99635.00;;;5.70
25514;BMP180;48128;54.242;10.280;2024-03-25T02:25:50;99638.00;;;5.70
25514;BMP180;48128;54.242;10.280;2024-03-25T02:28:16;99634.00;;;5.70
25514;BMP180;48128;54.242;10.280;2024-03-25T02:30:42;99635.00;;;5.80
25514;BMP180;48128;54.242;10.280;2024-03-25T02:33:08;99643.00;;;5.80
25514;BMP180;48128;54.242;10.280;2024-03-25T02:35:34;99636.00;;;5.70
25514;BMP180;48128;54.242;10.280;2024-03-25T02:38:01;99640.00;;;5.70
25514;BMP180;48128;54.242;10.280;2024-03-25T02:40:29;99651.00;;;5.70
25514;BMP180;48128;54.242;10.280;2024-03-25T02:42:55;99631.00;;;5.70
25514;BMP180;48128;54.242;10.280;2024-03-25T02:45:21;99642.00;;;5.70
25514;BMP180;48128;54.242;10.280;2024-03-25T02:47:47;99642.00;;;5.70
25514;BMP180;48128;54.242;10.280;2024-03-25T02:50:13;99650.00;;;5.70
25514;BMP180;48128;54.242;10.280;2024-03-25T02:52:39;99649.00;;;5.70
25514;BMP180;48128;54.242;10.280;2024-03-25T02:55:05;99655.00;;;5.70
25514;BMP180;48128;54.242;10.280;2024-03-25T02:57:31;99650.00;;;5.70
25514;BMP180;48128;54.242;10.280;2024-03-25T02:59:57;99655.00;;;5.70
25514;BMP180;48128;54.242;10.280;2024-03-25T03:02:23;99659.00;;;5.70
25514;BMP180;48128;54.242;10.280;2024-03-25T03:04:49;99674.00;;;5.70
25514;BMP180;48128;54.242;10.280;2024-03-25T03:07:15;99677.00;;;5.70
25514;BMP180;48128;54.242;10.280;2024-03-25T03:09:42;99684.00;;;5.70
25514;BMP180;48128;54.242;10.280;2024-03-25T03:12:08;99683.00;;;5.70
25514;BMP180;48128;54.242;10.280;2024-03-25T03:14:34;99678.00;;;5.70
25514;BMP180;48128;54.242;10.280;2024-03-25T03:17:00;99684.00;;;5.70
25514;BMP180;48128;54.242;10.280;2024-03-25T03:19:31;99691.00;;;5.70
25514;BMP180;48128;54.242;10.280;2024-03-25T03:21:57;99692.00;;;5.70
25514;BMP180;48128;54.242;10.280;2024-03-25T03:24:23;99682.00;;;5.70
25514;BMP180;48128;54.242;10.280;2024-03-25T03:26:49;99686.00;;;5.70
25514;BMP180;48128;54.242;10.280;2024-03-25T03:29:15;99688.00;;;5.70
25514;BMP180;48128;54.242;10.280;2024-03-25T03:31:41;99682.00;;;5.70
25514;BMP180;48128;54.242;10.280;2024-03-25T03:34:07;99679.00;;;5.70
25514;BMP180;48128;54.242;10.280;2024-03-25T03:36:33;99694.00;;;5.70
25514;BMP180;48128;54.242;10.280;2024-03-25T03:38:59;99684.00;;;5.70
25514;BMP180;48128;54.242;10.280;2024-03-25T03:41:25;99692.00;;;5.70
25514;BMP180;48128;54.242;10.280;2024-03-25T03:43:51;99699.00;;;5.70
25514;BMP180;48128;54.242;10.280;2024-03-25T03:46:17;99702.00;;;5.60
25514;BMP180;48128;54.242;10.280;2024-03-25T03:48:43;99699.00;;;5.60
25514;BMP180;48128;54.242;10.280;2024-03-25T03:51:09;99696.00;;;5.60
25514;BMP180;48128;54.242;10.280;2024-03-25T03:53:35;99711.00;;;5.60
25514;BMP180;48128;54.242;10.280;2024-03-25T03:56:04;99718.00;;;5.60
25514;BMP180;48128;54.242;10.280;2024-03-25T03:58:33;99727.00;;;5.60
25514;BMP180;48128;54.242;10.280;2024-03-25T04:00:59;99723.00;;;5.60
25514;BMP180;48128;54.242;10.280;2024-03-25T04:03:26;99722.00;;;5.60
25514;BMP180;48128;54.242;10.280;2024-03-25T04:05:52;99731.00;;;5.60
25514;BMP180;48128;54.242;10.280;2024-03-25T04:08:18;99740.00;;;5.60
25514;BMP180;48128;54.242;10.280;2024-03-25T04:10:45;99748.00;;;5.60
25514;BMP180;48128;54.242;10.280;2024-03-25T04:13:11;99755.00;;;5.50
25514;BMP180;48128;54.242;10.280;2024-03-25T04:15:39;99769.00;;;5.40
25514;BMP180;48128;54.242;10.280;2024-03-25T04:18:06;99785.00;;;5.40
25514;BMP180;48128;54.242;10.280;2024-03-25T04:20:39;99785.00;;;5.40
25514;BMP180;48128;54.242;10.280;2024-03-25T04:23:06;99787.00;;;5.40
25514;BMP180;48128;54.242;10.280;2024-03-25T04:25:35;99793.00;;;5.30
25514;BMP180;48128;54.242;10.280;2024-03-25T04:28:05;99788.00;;;5.30
25514;BMP180;48128;54.242;10.280;2024-03-25T04:30:32;99792.00;;;5.30
25514;BMP180;48128;54.242;10.280;2024-03-25T04:32:59;99812.00;;;5.30
25514;BMP180;48128;54.242;10.280;2024-03-25T04:35:25;99818.00;;;5.30
25514;BMP180;48128;54.242;10.280;2024-03-25T04:37:53;99831.00;;;5.30
25514;BMP180;48128;54.242;10.280;2024-03-25T04:40:21;99840.00;;;5.20
25514;BMP180;48128;54.242;10.280;2024-03-25T04:42:47;99843.00;;;5.20
25514;BMP180;48128;54.242;10.280;2024-03-25T04:45:13;99836.00;;;5.20
25514;BMP180;48128;54.242;10.280;2024-03-25T04:47:39;99845.00;;;5.20
25514;BMP180;48128;54.242;10.280;2024-03-25T04:50:06;99860.00;;;5.20
25514;BMP180;48128;54.242;10.280;2024-03-25T04:52:32;99864.00;;;5.20
25514;BMP180;48128;54.242;10.280;2024-03-25T04:54:58;99864.00;;;5.20
25514;BMP180;48128;54.242;10.280;2024-03-25T04:57:24;99873.00;;;5.20
25514;BMP180;48128;54.242;10.280;2024-03-25T04:59:50;99873.00;;;5.20
25514;BMP180;48128;54.242;10.280;2024-03-25T05:02:16;99880.00;;;5.10
25514;BMP180;48128;54.242;10.280;2024-03-25T05:04:42;99865.00;;;5.10
25514;BMP180;48128;54.242;10.280;2024-03-25T05:07:08;99873.00;;;5.10
25514;BMP180;48128;54.242;10.280;2024-03-25T05:09:34;99884.00;;;5.10
25514;BMP180;48128;54.242;10.280;2024-03-25T05:12:00;99893.00;;;5.10
25514;BMP180;48128;54.242;10.280;2024-03-25T05:14:26;99891.00;;;5.00
25514;BMP180;48128;54.242;10.280;2024-03-25T05:16:52;99896.00;;;5.00
25514;BMP180;48128;54.242;10.280;2024-03-25T05:19:19;99894.00;;;4.90
25514;BMP180;48128;54.242;10.280;2024-03-25T05:21:45;99889.00;;;4.90
25514;BMP180;48128;54.242;10.280;2024-03-25T05:24:11;99882.00;;;4.80
25514;BMP180;48128;54.242;10.280;2024-03-25T05:26:37;99889.00;;;4.70
25514;BMP180;48128;54.242;10.280;2024-03-25T05:29:03;99883.00;;;4.70
25514;BMP180;48128;54.242;10.280;2024-03-25T05:31:29;99880.00;;;4.60
25514;BMP180;48128;54.242;10.280;2024-03-25T05:33:56;99888.00;;;4.60
25514;BMP180;48128;54.242;10.280;2024-03-25T05:36:23;99876.00;;;4.50
25514;BMP180;48128;54.242;10.280;2024-03-25T05:38:48;99890.00;;;4.40
25514;BMP180;48128;54.242;10.280;2024-03-25T05:41:14;99880.00;;;4.40
25514;BMP180;48128;54.242;10.280;2024-03-25T05:43:40;99890.00;;;4.30
25514;BMP180;48128;54.242;10.280;2024-03-25T05:46:06;99886.00;;;4.30
25514;BMP180;48128;54.242;10.280;2024-03-25T05:48:33;99884.00;;;4.30
25514;BMP180;48128;54.242;10.280;2024-03-25T05:51:05;99889.00;;;4.30
25514;BMP180;48128;54.242;10.280;2024-03-25T05:53:32;99881.00;;;4.40
25514;BMP180;48128;54.242;10.280;2024-03-25T05:55:58;99875.00;;;4.40
25514;BMP180;48128;54.242;10.280;2024-03-25T05:58:25;99874.00;;;4.50
25514;BMP180;48128;54.242;10.280;2024-03-25T06:00:51;99870.00;;;4.60
25514;BMP180;48128;54.242;10.280;2024-03-25T06:03:19;99871.00;;;4.70
25514;BMP180;48128;54.242;10.280;2024-03-25T06:05:45;99866.00;;;4.70
25514;BMP180;48128;54.242;10.280;2024-03-25T06:08:11;99873.00;;;4.80
25514;BMP180;48128;54.242;10.280;2024-03-25T06:11:01;99881.00;;;4.80
25514;BMP180;48128;54.242;10.280;2024-03-25T06:13:27;99881.00;;;4.80
25514;BMP180;48128;54.242;10.280;2024-03-25T06:15:53;99880.00;;;4.80
25514;BMP180;48128;54.242;10.280;2024-03-25T06:18:19;99902.00;;;4.90
25514;BMP180;48128;54.242;10.280;2024-03-25T06:20:45;99902.00;;;4.90
25514;BMP180;48128;54.242;10.280;2024-03-25T06:23:22;99915.00;;;5.00
25514;BMP180;48128;54.242;10.280;2024-03-25T06:25:49;99920.00;;;5.10
25514;BMP180;48128;54.242;10.280;2024-03-25T06:28:15;99916.00;;;5.20
25514;BMP180;48128;54.242;10.280;2024-03-25T06:30:41;99926.00;;;5.30
25514;BMP180;48128;54.242;10.280;2024-03-25T06:33:26;99937.00;;;5.40
25514;BMP180;48128;54.242;10.280;2024-03-25T06:36:10;99941.00;;;5.60
25514;BMP180;48128;54.242;10.280;2024-03-25T06:38:36;99940.00;;;5.70
25514;BMP180;48128;54.242;10.280;2024-03-25T06:41:02;99948.00;;;5.80
25514;BMP180;48128;54.242;10.280;2024-03-25T06:43:28;99948.00;;;5.90
25514;BMP180;48128;54.242;10.280;2024-03-25T06:45:54;99947.00;;;6.00
25514;BMP180;48128;54.242;10.280;2024-03-25T06:48:20;99959.00;;;6.10
25514;BMP180;48128;54.242;10.280;2024-03-25T06:50:56;99958.00;;;6.20
25514;BMP180;48128;54.242;10.280;2024-03-25T06:53:23;99963.00;;;6.20
25514;BMP180;48128;54.242;10.280;2024-03-25T06:55:52;99967.00;;;6.30
25514;BMP180;48128;54.242;10.280;2024-03-25T06:58:23;99958.00;;;6.40
25514;BMP180;48128;54.242;10.280;2024-03-25T07:00:50;99967.00;;;6.50
25514;BMP180;48128;54.242;10.280;2024-03-25T07:03:16;99985.00;;;6.60
25514;BMP180;48128;54.242;10.280;2024-03-25T07:05:46;99971.00;;;6.60
25514;BMP180;48128;54.242;10.280;2024-03-25T07:08:13;99989.00;;;6.60
25514;BMP180;48128;54.242;10.280;2024-03-25T07:10:41;100000.00;;;6.60
25514;BMP180;48128;54.242;10.280;2024-03-25T07:13:07;99990.00;;;6.50
25514;BMP180;48128;54.242;10.280;2024-03-25T07:15:33;99996.00;;;6.60
25514;BMP180;48128;54.242;10.280;2024-03-25T07:17:59;99985.00;;;6.70
25514;BMP180;48128;54.242;10.280;2024-03-25T07:20:25;99984.00;;;6.70
25514;BMP180;48128;54.242;10.280;2024-03-25T07:22:55;100008.00;;;6.70
25514;BMP180;48128;54.242;10.280;2024-03-25T07:25:27;99999.00;;;6.80
25514;BMP180;48128;54.242;10.280;2024-03-25T07:27:53;100013.00;;;6.90
25514;BMP180;48128;54.242;10.280;2024-03-25T07:30:19;100015.00;;;7.00
25514;BMP180;48128;54.242;10.280;2024-03-25T07:32:47;100018.00;;;7.10
25514;BMP180;48128;54.242;10.280;2024-03-25T07:35:14;100017.00;;;7.10
25514;BMP180;48128;54.242;10.280;2024-03-25T07:37:43;100039.00;;;7.20
25514;BMP180;48128;54.242;10.280;2024-03-25T07:40:09;100038.00;;;7.20
25514;BMP180;48128;54.242;10.280;2024-03-25T07:42:38;100063.00;;;7.20
25514;BMP180;48128;54.242;10.280;2024-03-25T07:45:04;100064.00;;;7.20
25514;BMP180;48128;54.242;10.280;2024-03-25T07:47:33;100064.00;;;7.20
25514;BMP180;48128;54.242;10.280;2024-03-25T07:50:00;100080.00;;;7.30
25514;BMP180;48128;54.242;10.280;2024-03-25T07:52:26;100061.00;;;7.20
25514;BMP180;48128;54.242;10.280;2024-03-25T07:54:53;100062.00;;;7.20
25514;BMP180;48128;54.242;10.280;2024-03-25T07:57:19;100068.00;;;7.20
25514;BMP180;48128;54.242;10.280;2024-03-25T07:59:45;100059.00;;;7.30
25514;BMP180;48128;54.242;10.280;2024-03-25T08:02:12;100068.00;;;7.50
25514;BMP180;48128;54.242;10.280;2024-03-25T08:04:38;100070.00;;;7.60
25514;BMP180;48128;54.242;10.280;2024-03-25T08:07:04;100073.00;;;7.60
25514;BMP180;48128;54.242;10.280;2024-03-25T08:09:30;100084.00;;;7.60
25514;BMP180;48128;54.242;10.280;2024-03-25T08:11:56;100091.00;;;7.60
25514;BMP180;48128;54.242;10.280;2024-03-25T08:14:22;100085.00;;;7.50
25514;BMP180;48128;54.242;10.280;2024-03-25T08:16:49;100091.00;;;7.40
25514;BMP180;48128;54.242;10.280;2024-03-25T08:19:15;100090.00;;;7.30
25514;BMP180;48128;54.242;10.280;2024-03-25T08:21:41;100080.00;;;7.30
25514;BMP180;48128;54.242;10.280;2024-03-25T08:24:07;100081.00;;;7.40
25514;BMP180;48128;54.242;10.280;2024-03-25T08:26:33;100093.00;;;7.60
25514;BMP180;48128;54.242;10.280;2024-03-25T08:28:59;100102.00;;;7.80
25514;BMP180;48128;54.242;10.280;2024-03-25T08:31:25;100098.00;;;8.10
25514;BMP180;48128;54.242;10.280;2024-03-25T08:33:51;100112.00;;;8.50
25514;BMP180;48128;54.242;10.280;2024-03-25T08:36:17;100146.00;;;8.70
25514;BMP180;48128;54.242;10.280;2024-03-25T08:38:44;100161.00;;;8.70
25514;BMP180;48128;54.242;10.280;2024-03-25T08:41:10;100146.00;;;8.60
25514;BMP180;48128;54.242;10.280;2024-03-25T08:43:36;100160.00;;;8.50
25514;BMP180;48128;54.242;10.280;2024-03-25T08:46:02;100153.00;;;8.30
25514;BMP180;48128;54.242;10.280;2024-03-25T08:48:29;100131.00;;;8.10
25514;BMP180;48128;54.242;10.280;2024-03-25T08:50:55;100117.00;;;7.90
25514;BMP180;48128;54.242;10.280;2024-03-25T08:53:21;100104.00;;;7.80
25514;BMP180;48128;54.242;10.280;2024-03-25T08:55:48;100095.00;;;7.80
25514;BMP180;48128;54.242;10.280;2024-03-25T08:58:15;100091.00;;;7.80
25514;BMP180;48128;54.242;10.280;2024-03-25T09:00:42;100080.00;;;7.80
25514;BMP180;48128;54.242;10.280;2024-03-25T09:03:08;100080.00;;;7.80
25514;BMP180;48128;54.242;10.280;2024-03-25T09:05:36;100096.00;;;7.90
25514;BMP180;48128;54.242;10.280;2024-03-25T09:08:05;100096.00;;;8.20
25514;BMP180;48128;54.242;10.280;2024-03-25T09:10:32;100140.00;;;8.70
25514;BMP180;48128;54.242;10.280;2024-03-25T09:13:16;100177.00;;;8.80
25514;BMP180;48128;54.242;10.280;2024-03-25T09:15:42;100165.00;;;8.70
25514;BMP180;48128;54.242;10.280;2024-03-25T09:18:08;100135.00;;;8.50
25514;BMP180;48128;54.242;10.280;2024-03-25T09:20:34;100107.00;;;8.40
25514;BMP180;48128;54.242;10.280;2024-03-25T09:23:00;100068.00;;;8.20
25514;BMP180;48128;54.242;10.280;2024-03-25T09:25:26;100060.00;;;8.10
25514;BMP180;48128;54.242;10.280;2024-03-25T09:27:52;100062.00;;;8.00
25514;BMP180;48128;54.242;10.280;2024-03-25T09:30:18;100053.00;;;8.00
25514;BMP180;48128;54.242;10.280;2024-03-25T09:32:45;100035.00;;;8.20
25514;BMP180;48128;54.242;10.280;2024-03-25T09:35:11;100058.00;;;8.60
25514;BMP180;48128;54.242;10.280;2024-03-25T09:37:37;100083.00;;;9.00
25514;BMP180;48128;54.242;10.280;2024-03-25T09:40:04;100105.00;;;9.20
25514;BMP180;48128;54.242;10.280;2024-03-25T09:42:36;100134.00;;;9.20
25514;BMP180;48128;54.242;10.280;2024-03-25T09:45:08;100128.00;;;9.20
25514;BMP180;48128;54.242;10.280;2024-03-25T09:47:34;100132.00;;;9.10
25514;BMP180;48128;54.242;10.280;2024-03-25T09:50:02;100135.00;;;9.10
25514;BMP180;48128;54.242;10.280;2024-03-25T09:52:28;100180.00;;;9.10
25514;BMP180;48128;54.242;10.280;2024-03-25T09:54:54;100159.00;;;9.10
25514;BMP180;48128;54.242;10.280;2024-03-25T09:57:21;100177.00;;;9.30
25514;BMP180;48128;54.242;10.280;2024-03-25T09:59:48;100175.00;;;9.30
25514;BMP180;48128;54.242;10.280;2024-03-25T10:02:14;100151.00;;;9.40
25514;BMP180;48128;54.242;10.280;2024-03-25T10:04:45;100163.00;;;9.40
25514;BMP180;48128;54.242;10.280;2024-03-25T10:07:21;100188.00;;;9.20
25514;BMP180;48128;54.242;10.280;2024-03-25T10:09:47;100188.00;;;9.00
25514;BMP180;48128;54.242;10.280;2024-03-25T10:12:13;100165.00;;;8.90
25514;BMP180;48128;54.242;10.280;2024-03-25T10:14:42;100167.00;;;8.80
25514;BMP180;48128;54.242;10.280;2024-03-25T10:17:09;100138.00;;;8.70
25514;BMP180;48128;54.242;10.280;2024-03-25T10:19:35;100149.00;;;8.70
25514;BMP180;48128;54.242;10.280;2024-03-25T10:22:02;100154.00;;;8.70
25514;BMP180;48128;54.242;10.280;2024-03-25T10:24:40;100150.00;;;8.80
25514;BMP180;48128;54.242;10.280;2024-03-25T10:27:09;100174.00;;;8.80
25514;BMP180;48128;54.242;10.280;2024-03-25T10:29:35;100147.00;;;8.80
25514;BMP180;48128;54.242;10.280;2024-03-25T10:32:02;100152.00;;;8.80
25514;BMP180;48128;54.242;10.280;2024-03-25T10:34:30;100166.00;;;8.80
25514;BMP180;48128;54.242;10.280;2024-03-25T10:36:57;100155.00;;;8.70
25514;BMP180;48128;54.242;10.280;2024-03-25T10:39:26;100152.00;;;8.70
25514;BMP180;48128;54.242;10.280;2024-03-25T10:41:58;100160.00;;;8.60
25514;BMP180;48128;54.242;10.280;2024-03-25T10:44:29;100181.00;;;8.50
25514;BMP180;48128;54.242;10.280;2024-03-25T10:47:04;100157.00;;;8.60
25514;BMP180;48128;54.242;10.280;2024-03-25T10:50:08;100178.00;;;8.70
25514;BMP180;48128;54.242;10.280;2024-03-25T10:52:27;100212.00;;;8.70
25514;BMP180;48128;54.242;10.280;2024-03-25T10:54:55;100211.00;;;8.80
25514;BMP180;48128;54.242;10.280;2024-03-25T10:57:21;100211.00;;;9.10
25514;BMP180;48128;54.242;10.280;2024-03-25T10:59:48;100252.00;;;9.20
25514;BMP180;48128;54.242;10.280;2024-03-25T11:02:14;100240.00;;;9.30
25514;BMP180;48128;54.242;10.280;2024-03-25T11:04:42;100218.00;;;9.60
25514;BMP180;48128;54.242;10.280;2024-03-25T11:07:10;100269.00;;;9.70
25514;BMP180;48128;54.242;10.280;2024-03-25T11:09:36;100262.00;;;9.80
25514;BMP180;48128;54.242;10.280;2024-03-25T11:12:03;100250.00;;;10.20
25514;BMP180;48128;54.242;10.280;2024-03-25T11:14:29;100291.00;;;10.40
25514;BMP180;48128;54.242;10.280;2024-03-25T11:16:58;100297.00;;;10.40
25514;BMP180;48128;54.242;10.280;2024-03-25T11:19:28;100288.00;;;10.60
25514;BMP180;48128;54.242;10.280;2024-03-25T11:21:55;100277.00;;;10.80
25514;BMP180;48128;54.242;10.280;2024-03-25T11:24:27;100303.00;;;11.00
25514;BMP180;48128;54.242;10.280;2024-03-25T11:26:54;100304.00;;;10.90
25514;BMP180;48128;54.242;10.280;2024-03-25T11:29:20;100258.00;;;11.10
25514;BMP180;48128;54.242;10.280;2024-03-25T11:31:46;100281.00;;;11.40
25514;BMP180;48128;54.242;10.280;2024-03-25T11:34:14;100311.00;;;11.70
25514;BMP180;48128;54.242;10.280;2024-03-25T11:36:40;100284.00;;;11.20
25514;BMP180;48128;54.242;10.280;2024-03-25T11:39:06;100302.00;;;10.80
25514;BMP180;48128;54.242;10.280;2024-03-25T11:41:44;100304.00;;;10.90
25514;BMP180;48128;54.242;10.280;2024-03-25T11:44:11;100271.00;;;10.80
25514;BMP180;48128;54.242;10.280;2024-03-25T11:46:40;100286.00;;;10.60
25514;BMP180;48128;54.242;10.280;2024-03-25T11:49:11;100278.00;;;10.30
25514;BMP180;48128;54.242;10.280;2024-03-25T11:51:38;100270.00;;;10.30
25514;BMP180;48128;54.242;10.280;2024-03-25T11:54:07;100268.00;;;10.20
25514;BMP180;48128;54.242;10.280;2024-03-25T11:56:36;100242.00;;;10.20
25514;BMP180;48128;54.242;10.280;2024-03-25T11:59:03;100250.00;;;10.20
25514;BMP180;48128;54.242;10.280;2024-03-25T12:01:30;100293.00;;;10.10
25514;BMP180;48128;54.242;10.280;2024-03-25T12:03:56;100256.00;;;10.30
25514;BMP180;48128;54.242;10.280;2024-03-25T12:06:22;100287.00;;;10.20
25514;BMP180;48128;54.242;10.280;2024-03-25T12:08:49;100272.00;;;10.10
25514;BMP180;48128;54.242;10.280;2024-03-25T12:11:33;100270.00;;;10.10
25514;BMP180;48128;54.242;10.280;2024-03-25T12:14:00;100268.00;;;10.10
25514;BMP180;48128;54.242;10.280;2024-03-25T12:16:26;100276.00;;;9.90
25514;BMP180;48128;54.242;10.280;2024-03-25T12:18:52;100273.00;;;9.90
25514;BMP180;48128;54.242;10.280;2024-03-25T12:21:21;100252.00;;;9.90
25514;BMP180;48128;54.242;10.280;2024-03-25T12:23:47;100259.00;;;10.00
25514;BMP180;48128;54.242;10.280;2024-03-25T12:26:13;100242.00;;;10.00
25514;BMP180;48128;54.242;10.280;2024-03-25T12:28:40;100282.00;;;10.00
25514;BMP180;48128;54.242;10.280;2024-03-25T12:31:09;100227.00;;;10.10
25514;BMP180;48128;54.242;10.280;2024-03-25T12:33:41;100234.00;;;10.30
25514;BMP180;48128;54.242;10.280;2024-03-25T12:36:07;100291.00;;;10.30
25514;BMP180;48128;54.242;10.280;2024-03-25T12:38:34;100269.00;;;10.30
25514;BMP180;48128;54.242;10.280;2024-03-25T12:41:10;100255.00;;;10.30
25514;BMP180;48128;54.242;10.280;2024-03-25T12:43:42;100272.00;;;10.50
25514;BMP180;48128;54.242;10.280;2024-03-25T12:46:08;100266.00;;;10.60
25514;BMP180;48128;54.242;10.280;2024-03-25T12:48:36;100242.00;;;10.70
25514;BMP180;48128;54.242;10.280;2024-03-25T12:51:02;100248.00;;;10.70
25514;BMP180;48128;54.242;10.280;2024-03-25T12:53:28;100255.00;;;10.60
25514;BMP180;48128;54.242;10.280;2024-03-25T12:55:54;100243.00;;;10.40
25514;BMP180;48128;54.242;10.280;2024-03-25T12:58:20;100233.00;;;10.20
25514;BMP180;48128;54.242;10.280;2024-03-25T13:00:46;100239.00;;;10.20
25514;BMP180;48128;54.242;10.280;2024-03-25T13:03:12;100239.00;;;10.60
25514;BMP180;48128;54.242;10.280;2024-03-25T13:05:38;100251.00;;;11.10
25514;BMP180;48128;54.242;10.280;2024-03-25T13:08:05;100257.00;;;11.30
25514;BMP180;48128;54.242;10.280;2024-03-25T13:10:31;100292.00;;;11.30
25514;BMP180;48128;54.242;10.280;2024-03-25T13:12:57;100286.00;;;11.20
25514;BMP180;48128;54.242;10.280;2024-03-25T13:15:23;100280.00;;;11.10
25514;BMP180;48128;54.242;10.280;2024-03-25T13:17:50;100251.00;;;11.00
25514;BMP180;48128;54.242;10.280;2024-03-25T13:20:16;100281.00;;;10.80
25514;BMP180;48128;54.242;10.280;2024-03-25T13:22:43;100289.00;;;10.60
25514;BMP180;48128;54.242;10.280;2024-03-25T13:25:11;100286.00;;;10.70
25514;BMP180;48128;54.242;10.280;2024-03-25T13:27:37;100248.00;;;10.70
25514;BMP180;48128;54.242;10.280;2024-03-25T13:30:04;100243.00;;;10.70
25514;BMP180;48128;54.242;10.280;2024-03-25T13:32:31;100265.00;;;10.60
25514;BMP180;48128;54.242;10.280;2024-03-25T13:34:57;100273.00;;;10.70
25514;BMP180;48128;54.242;10.280;2024-03-25T13:37:23;100256.00;;;10.60
25514;BMP180;48128;54.242;10.280;2024-03-25T13:39:50;100230.00;;;10.90
25514;BMP180;48128;54.242;10.280;2024-03-25T13:42:16;100246.00;;;11.40
25514;BMP180;48128;54.242;10.280;2024-03-25T13:44:42;100267.00;;;11.50
25514;BMP180;48128;54.242;10.280;2024-03-25T13:47:08;100289.00;;;11.20
25514;BMP180;48128;54.242;10.280;2024-03-25T13:49:34;100273.00;;;11.00
25514;BMP180;48128;54.242;10.280;2024-03-25T13:52:01;100225.00;;;10.70
25514;BMP180;48128;54.242;10.280;2024-03-25T13:54:30;100206.00;;;10.50
25514;BMP180;48128;54.242;10.280;2024-03-25T13:56:57;100223.00;;;10.30
25514;BMP180;48128;54.242;10.280;2024-03-25T13:59:23;100228.00;;;10.20
25514;BMP180;48128;54.242;10.280;2024-03-25T14:01:49;100207.00;;;10.00